Portada
METAR-TAF:

METAR-TAF

Aeropuertos :

Aeropuerto de Nagasaki

Nagasaki, Japón

latitud: 32-55N, longitud: 129-55E, altitud: 2 m

Observación

El informe se hizo hace 6 horas y 9 minutos, a las 12:00 UTC
Viento 9 kt del norte-noroeste
Temperatura 22°C
Humedad 88%
Presión 1008 hPa
Visibilidad 10 km o más
Escasas nubes a una altura de 2000 ft
Cielo nuboso a una altura de 3500 ft

METAR: RJFU 061200Z 33009KT 9999 FEW020 BKN035 22/20 Q1008

Hora: 03:09 (18:09 UTC)

Pronóstico

El informe se hizo hace 1 hora y 1 minutos, a las 17:08 UTC
Pronóstico válido del 06 a las 18 UTC al 08 a las 00 UTC
Viento 8 kt del norte-noroeste
Visibilidad 10 km o más
Escasas nubes a una altura de 3000 ft
Evolucionando progresivamente
del 07 a las 15 UTC al 07 a las 18 UTC
Viento 3 kt del sureste

TAF: RJFU 061708Z 0618/0800 33008KT 9999 FEW030 BECMG 0715/0718 14003KT

Observaciones y pronósticos meteorológicos de más de 4000 aeropuertos (mensajes METAR y TAF).

Los puntos amarillos y rojos representan las estaciones disponibles.

Ponga el ratón en el punto deseado para ver el nombre de la estación.

Haga clic para ver las observaciones y los pronósticos meteorológicos.

Para cambiar el mapa : haga clic en los botones verdes con una cruz de color negro para hacer un zoom, en el botón verde con un guión para alejar o en las flechas verdes para mapas adyacentes.


METAR-TAF: